CCM28DO EBCI-LFKB
Flight info
| Callsign | CCM28DO |
|---|---|
| Flight time | 1h 26m |
| Altitude | 37000 |
| Route | RITAX UT27 ROUSY DCT GTQ DCT DEVDI DCT ODINA DCT OLETI M858 LIGUR |
| Aircraft | A320/M-SDE3FGHIRWY/LB1 |
Departure
| Time | 2026-04-26 15:20 |
|---|---|
| Airport | Brussels South Charleroi Airport (EBCI) |
Arrival
| Time | 2026-04-26 16:47 |
|---|---|
| Airport | Bastia-Poretta International airport (LFKB) |
| Time | Latitude | Longitude | Altitude | Speed | Heading |
|---|---|---|---|---|---|
| 2026-04-26 14:55 | 50.46767 | 4.46752 | 586 ft | 0 kts | 335° |
| 2026-04-26 15:08 | 50.46767 | 4.46753 | 613 ft | 0 kts | 334° |
| 2026-04-26 15:10 | 50.46744 | 4.46768 | 586 ft | 4 kts | 330° |
| 2026-04-26 15:10 | 50.46722 | 4.46791 | 587 ft | 4 kts | 317° |
| 2026-04-26 15:11 | 50.46711 | 4.46807 | 588 ft | 0 kts | 316° |
| 2026-04-26 15:12 | 50.46711 | 4.46801 | 588 ft | 0 kts | 283° |
| 2026-04-26 15:13 | 50.46706 | 4.46779 | 588 ft | 2 kts | 237° |
| 2026-04-26 15:13 | 50.46698 | 4.46774 | 589 ft | 1 kts | 200° |
| 2026-04-26 15:14 | 50.46683 | 4.46774 | 589 ft | 3 kts | 176° |
| 2026-04-26 15:14 | 50.46652 | 4.46793 | 591 ft | 6 kts | 157° |
| 2026-04-26 15:14 | 50.46611 | 4.46800 | 592 ft | 7 kts | 203° |
| 2026-04-26 15:14 | 50.46580 | 4.46710 | 591 ft | 12 kts | 244° |
| 2026-04-26 15:15 | 50.46540 | 4.46575 | 591 ft | 16 kts | 246° |
| 2026-04-26 15:15 | 50.46489 | 4.46398 | 589 ft | 19 kts | 246° |
| 2026-04-26 15:15 | 50.46435 | 4.46212 | 591 ft | 19 kts | 246° |
| 2026-04-26 15:15 | 50.46382 | 4.46032 | 594 ft | 17 kts | 245° |
| 2026-04-26 15:16 | 50.46341 | 4.45891 | 597 ft | 13 kts | 245° |
| 2026-04-26 15:16 | 50.46307 | 4.45772 | 597 ft | 12 kts | 245° |
| 2026-04-26 15:16 | 50.46276 | 4.45665 | 598 ft | 9 kts | 246° |
| 2026-04-26 15:16 | 50.46251 | 4.45578 | 599 ft | 9 kts | 246° |
| 2026-04-26 15:17 | 50.46217 | 4.45462 | 599 ft | 18 kts | 246° |
| 2026-04-26 15:17 | 50.46178 | 4.45334 | 599 ft | 19 kts | 244° |
| 2026-04-26 15:17 | 50.46109 | 4.45092 | 596 ft | 18 kts | 245° |
| 2026-04-26 15:17 | 50.46059 | 4.44920 | 597 ft | 16 kts | 245° |
| 2026-04-26 15:18 | 50.46015 | 4.44768 | 596 ft | 15 kts | 245° |
| 2026-04-26 15:18 | 50.45964 | 4.44595 | 599 ft | 19 kts | 245° |
| 2026-04-26 15:18 | 50.45904 | 4.44421 | 599 ft | 17 kts | 234° |
| 2026-04-26 15:18 | 50.45834 | 4.44277 | 599 ft | 16 kts | 232° |
| 2026-04-26 15:19 | 50.45767 | 4.44141 | 596 ft | 16 kts | 232° |
| 2026-04-26 15:19 | 50.45697 | 4.44005 | 594 ft | 15 kts | 225° |
| 2026-04-26 15:19 | 50.45623 | 4.44031 | 594 ft | 12 kts | 98° |
| 2026-04-26 15:19 | 50.45664 | 4.44185 | 594 ft | 25 kts | 66° |
| 2026-04-26 15:20 | 50.45830 | 4.44750 | 599 ft | 90 kts | 65° |
| 2026-04-26 15:20 | 50.46174 | 4.45930 | 592 ft | 145 kts | 65° |
| 2026-04-26 15:20 | 50.46630 | 4.47515 | 915 ft | 161 kts | 66° |
| 2026-04-26 15:20 | 50.47208 | 4.48990 | 1600 ft | 160 kts | 46° |
| 2026-04-26 15:21 | 50.47948 | 4.50297 | 2269 ft | 160 kts | 47° |
| 2026-04-26 15:21 | 50.48721 | 4.51653 | 2775 ft | 174 kts | 47° |
| 2026-04-26 15:21 | 50.49567 | 4.53158 | 3115 ft | 194 kts | 49° |
| 2026-04-26 15:21 | 50.50505 | 4.54849 | 3425 ft | 214 kts | 48° |
| 2026-04-26 15:22 | 50.51530 | 4.56708 | 3791 ft | 237 kts | 48° |
| 2026-04-26 15:22 | 50.52656 | 4.58763 | 4301 ft | 256 kts | 49° |
| 2026-04-26 15:22 | 50.53800 | 4.60972 | 5076 ft | 264 kts | 51° |
| 2026-04-26 15:22 | 50.54922 | 4.63238 | 5909 ft | 269 kts | 52° |
| 2026-04-26 15:23 | 50.56065 | 4.65587 | 6737 ft | 273 kts | 52° |
| 2026-04-26 15:23 | 50.57231 | 4.67988 | 7502 ft | 278 kts | 52° |
| 2026-04-26 15:23 | 50.58415 | 4.70419 | 8277 ft | 282 kts | 51° |
| 2026-04-26 15:23 | 50.59624 | 4.72890 | 9042 ft | 287 kts | 52° |
| 2026-04-26 15:24 | 50.60852 | 4.75396 | 9831 ft | 291 kts | 51° |
| 2026-04-26 15:24 | 50.62099 | 4.77936 | 10540 ft | 297 kts | 51° |
| 2026-04-26 15:24 | 50.63395 | 4.80619 | 10805 ft | 320 kts | 54° |
| 2026-04-26 15:24 | 50.64463 | 4.83736 | 11046 ft | 341 kts | 66° |
| 2026-04-26 15:25 | 50.65155 | 4.87316 | 11361 ft | 358 kts | 77° |
| 2026-04-26 15:25 | 50.65388 | 4.89927 | 11601 ft | 368 kts | 85° |
| 2026-04-26 15:25 | 50.65239 | 4.95380 | 12121 ft | 385 kts | 99° |
| 2026-04-26 15:25 | 50.64574 | 4.99525 | 12552 ft | 396 kts | 109° |
| 2026-04-26 15:26 | 50.63440 | 5.03531 | 13019 ft | 405 kts | 118° |
| 2026-04-26 15:26 | 50.61867 | 5.07249 | 13510 ft | 412 kts | 128° |
| 2026-04-26 15:26 | 50.59893 | 5.10564 | 14024 ft | 418 kts | 138° |
| 2026-04-26 15:26 | 50.57577 | 5.13361 | 14502 ft | 422 kts | 148° |
| 2026-04-26 15:27 | 50.54982 | 5.15555 | 14992 ft | 426 kts | 157° |
| 2026-04-26 15:27 | 50.52179 | 5.17080 | 15506 ft | 428 kts | 166° |
| 2026-04-26 15:27 | 50.49247 | 5.17890 | 16031 ft | 429 kts | 176° |
| 2026-04-26 15:27 | 50.46269 | 5.17962 | 16588 ft | 429 kts | 185° |
| 2026-04-26 15:28 | 50.43317 | 5.17294 | 17150 ft | 428 kts | 195° |
| 2026-04-26 15:28 | 50.40485 | 5.15910 | 17724 ft | 427 kts | 204° |
| 2026-04-26 15:28 | 50.37827 | 5.13837 | 18317 ft | 425 kts | 213° |
| 2026-04-26 15:28 | 50.35434 | 5.11150 | 18869 ft | 422 kts | 223° |
| 2026-04-26 15:29 | 50.33363 | 5.07923 | 19412 ft | 419 kts | 232° |
| 2026-04-26 15:29 | 50.31664 | 5.04244 | 19948 ft | 415 kts | 242° |
| 2026-04-26 15:29 | 50.29561 | 4.96022 | 21085 ft | 408 kts | 260° |
| 2026-04-26 15:30 | 50.29291 | 4.87282 | 22311 ft | 400 kts | 278° |
| 2026-04-26 15:30 | 50.29859 | 4.83042 | 22958 ft | 397 kts | 288° |
| 2026-04-26 15:30 | 50.30872 | 4.79057 | 23617 ft | 393 kts | 297° |
| 2026-04-26 15:31 | 50.32298 | 4.75426 | 24220 ft | 390 kts | 307° |
| 2026-04-26 15:31 | 50.36194 | 4.69656 | 25419 ft | 384 kts | 326° |
| 2026-04-26 15:31 | 50.38519 | 4.67697 | 26026 ft | 382 kts | 335° |
| 2026-04-26 15:32 | 50.41906 | 4.66098 | 26448 ft | 392 kts | 349° |
| 2026-04-26 15:32 | 50.46534 | 4.66789 | 26670 ft | 416 kts | 18° |
| 2026-04-26 15:32 | 50.49060 | 4.69127 | 26801 ft | 431 kts | 38° |
| 2026-04-26 15:33 | 50.50970 | 4.72840 | 26937 ft | 447 kts | 59° |
| 2026-04-26 15:33 | 50.51939 | 4.77532 | 27086 ft | 460 kts | 81° |
| 2026-04-26 15:33 | 50.51967 | 4.80881 | 27224 ft | 466 kts | 95° |
| 2026-04-26 15:33 | 50.50533 | 4.87314 | 27538 ft | 473 kts | 120° |
| 2026-04-26 15:34 | 50.49384 | 4.90224 | 27705 ft | 475 kts | 123° |
| 2026-04-26 15:34 | 50.47508 | 4.94515 | 27963 ft | 478 kts | 126° |
| 2026-04-26 15:34 | 50.45520 | 4.98724 | 28223 ft | 480 kts | 127° |
| 2026-04-26 15:34 | 50.43498 | 5.02892 | 28465 ft | 482 kts | 127° |
| 2026-04-26 15:35 | 50.40818 | 5.08482 | 28790 ft | 485 kts | 126° |
| 2026-04-26 15:35 | 50.38827 | 5.12763 | 29031 ft | 487 kts | 125° |
| 2026-04-26 15:35 | 50.37498 | 5.15676 | 29185 ft | 488 kts | 124° |
| 2026-04-26 15:35 | 50.35534 | 5.20039 | 29405 ft | 490 kts | 124° |
| 2026-04-26 15:36 | 50.33578 | 5.24419 | 29626 ft | 491 kts | 124° |
| 2026-04-26 15:36 | 50.31644 | 5.28743 | 29917 ft | 491 kts | 124° |
| 2026-04-26 15:36 | 50.29657 | 5.33157 | 30232 ft | 491 kts | 124° |
| 2026-04-26 15:36 | 50.27682 | 5.37507 | 30495 ft | 490 kts | 124° |
| 2026-04-26 15:37 | 50.25699 | 5.41843 | 30752 ft | 490 kts | 125° |
| 2026-04-26 15:37 | 50.23709 | 5.46166 | 31003 ft | 490 kts | 125° |
| 2026-04-26 15:37 | 50.21744 | 5.50424 | 31254 ft | 490 kts | 125° |
| 2026-04-26 15:37 | 50.19754 | 5.54732 | 31534 ft | 488 kts | 124° |
| 2026-04-26 15:38 | 50.17772 | 5.59032 | 31813 ft | 488 kts | 124° |
| 2026-04-26 15:38 | 50.15795 | 5.63328 | 32072 ft | 487 kts | 124° |
| 2026-04-26 15:38 | 50.13818 | 5.67617 | 32327 ft | 487 kts | 124° |
| 2026-04-26 15:38 | 50.11840 | 5.71898 | 32586 ft | 487 kts | 126° |
| 2026-04-26 15:39 | 50.09640 | 5.75904 | 32835 ft | 487 kts | 135° |
| 2026-04-26 15:39 | 50.07071 | 5.79335 | 33086 ft | 487 kts | 145° |
| 2026-04-26 15:39 | 50.04204 | 5.82096 | 33324 ft | 485 kts | 154° |
| 2026-04-26 15:39 | 50.02169 | 5.83539 | 33477 ft | 484 kts | 160° |
| 2026-04-26 15:40 | 49.97909 | 5.85795 | 33795 ft | 484 kts | 163° |
| 2026-04-26 15:40 | 49.94709 | 5.87445 | 34054 ft | 483 kts | 163° |
| 2026-04-26 15:40 | 49.91519 | 5.89094 | 34292 ft | 483 kts | 163° |
| 2026-04-26 15:40 | 49.88332 | 5.90742 | 34526 ft | 483 kts | 163° |
| 2026-04-26 15:41 | 49.85149 | 5.92386 | 34769 ft | 481 kts | 163° |
| 2026-04-26 15:41 | 49.81973 | 5.94020 | 34998 ft | 481 kts | 163° |
| 2026-04-26 15:41 | 49.78806 | 5.95641 | 35206 ft | 480 kts | 163° |
| 2026-04-26 15:41 | 49.75635 | 5.97260 | 35409 ft | 480 kts | 163° |
| 2026-04-26 15:42 | 49.72466 | 5.98875 | 35608 ft | 479 kts | 163° |
| 2026-04-26 15:42 | 49.69302 | 6.00489 | 35802 ft | 479 kts | 163° |
| 2026-04-26 15:42 | 49.66176 | 6.02081 | 35989 ft | 478 kts | 163° |
| 2026-04-26 15:42 | 49.63019 | 6.03689 | 36183 ft | 477 kts | 163° |
| 2026-04-26 15:43 | 49.59864 | 6.05294 | 36352 ft | 477 kts | 163° |
| 2026-04-26 15:43 | 49.56719 | 6.06890 | 36520 ft | 477 kts | 163° |
| 2026-04-26 15:43 | 49.50419 | 6.10108 | 36836 ft | 477 kts | 160° |
| 2026-04-26 15:44 | 49.47412 | 6.12266 | 36996 ft | 478 kts | 150° |
| 2026-04-26 15:44 | 49.42090 | 6.18367 | 37223 ft | 479 kts | 141° |
| 2026-04-26 15:44 | 49.39496 | 6.21584 | 37230 ft | 479 kts | 141° |
| 2026-04-26 15:45 | 49.31713 | 6.31210 | 37224 ft | 478 kts | 141° |
| 2026-04-26 15:46 | 49.23942 | 6.40773 | 37225 ft | 478 kts | 141° |
| 2026-04-26 15:46 | 49.19631 | 6.46068 | 37220 ft | 478 kts | 141° |
| 2026-04-26 15:47 | 49.10981 | 6.56645 | 37207 ft | 478 kts | 141° |
| 2026-04-26 15:48 | 49.05779 | 6.62967 | 37224 ft | 478 kts | 142° |
| 2026-04-26 15:48 | 49.00569 | 6.69275 | 37233 ft | 477 kts | 143° |
| 2026-04-26 15:49 | 48.94876 | 6.74217 | 37230 ft | 474 kts | 157° |
| 2026-04-26 15:49 | 48.88852 | 6.78302 | 37227 ft | 474 kts | 157° |
| 2026-04-26 15:50 | 48.82828 | 6.82403 | 37208 ft | 474 kts | 157° |
| 2026-04-26 15:50 | 48.76807 | 6.86504 | 37213 ft | 474 kts | 157° |
| 2026-04-26 15:51 | 48.70780 | 6.90598 | 37216 ft | 475 kts | 157° |
| 2026-04-26 15:51 | 48.64743 | 6.94676 | 37214 ft | 475 kts | 157° |
| 2026-04-26 15:52 | 48.58709 | 6.98738 | 37222 ft | 474 kts | 158° |
| 2026-04-26 15:52 | 48.52684 | 7.02775 | 37217 ft | 473 kts | 158° |
| 2026-04-26 15:53 | 48.46670 | 7.06806 | 37215 ft | 473 kts | 158° |
| 2026-04-26 15:53 | 48.40698 | 7.10799 | 37197 ft | 472 kts | 157° |
| 2026-04-26 15:54 | 48.34691 | 7.14810 | 37192 ft | 472 kts | 158° |
| 2026-04-26 15:54 | 48.28686 | 7.18804 | 37186 ft | 472 kts | 158° |
| 2026-04-26 15:55 | 48.22679 | 7.22789 | 37179 ft | 472 kts | 158° |
| 2026-04-26 15:55 | 48.16676 | 7.26759 | 37170 ft | 472 kts | 158° |
| 2026-04-26 15:56 | 48.10677 | 7.30720 | 37188 ft | 471 kts | 158° |
| 2026-04-26 15:56 | 48.04688 | 7.34658 | 37190 ft | 470 kts | 158° |
| 2026-04-26 15:57 | 47.98701 | 7.38601 | 37177 ft | 469 kts | 158° |
| 2026-04-26 15:57 | 47.92731 | 7.42509 | 37181 ft | 468 kts | 158° |
| 2026-04-26 15:58 | 47.86761 | 7.46400 | 37181 ft | 468 kts | 158° |
| 2026-04-26 15:58 | 47.80832 | 7.50262 | 37179 ft | 468 kts | 158° |
| 2026-04-26 15:59 | 47.74862 | 7.54145 | 37171 ft | 468 kts | 158° |
| 2026-04-26 15:59 | 47.68927 | 7.58131 | 37182 ft | 468 kts | 156° |
| 2026-04-26 16:00 | 47.63065 | 7.62327 | 37184 ft | 467 kts | 156° |
| 2026-04-26 16:00 | 47.57222 | 7.66531 | 37186 ft | 467 kts | 156° |
| 2026-04-26 16:01 | 47.51362 | 7.70671 | 37180 ft | 466 kts | 156° |
| 2026-04-26 16:01 | 47.45540 | 7.74723 | 37181 ft | 465 kts | 157° |
| 2026-04-26 16:02 | 47.39681 | 7.78785 | 37181 ft | 465 kts | 156° |
| 2026-04-26 16:02 | 47.33828 | 7.82857 | 37185 ft | 465 kts | 156° |
| 2026-04-26 16:03 | 47.27978 | 7.86933 | 37174 ft | 464 kts | 156° |
| 2026-04-26 16:03 | 47.22131 | 7.90994 | 37177 ft | 464 kts | 156° |
| 2026-04-26 16:04 | 47.16291 | 7.95025 | 37184 ft | 464 kts | 157° |
| 2026-04-26 16:04 | 47.10481 | 7.99012 | 37169 ft | 464 kts | 157° |
| 2026-04-26 16:05 | 47.04642 | 8.03012 | 37172 ft | 463 kts | 157° |
| 2026-04-26 16:05 | 46.98810 | 8.07024 | 37172 ft | 463 kts | 157° |
| 2026-04-26 16:06 | 46.92981 | 8.11038 | 37171 ft | 462 kts | 157° |
| 2026-04-26 16:06 | 46.87150 | 8.15010 | 37157 ft | 462 kts | 157° |
| 2026-04-26 16:07 | 46.81314 | 8.18967 | 37177 ft | 462 kts | 157° |
| 2026-04-26 16:07 | 46.75493 | 8.22919 | 37178 ft | 462 kts | 157° |
| 2026-04-26 16:08 | 46.69699 | 8.26854 | 37181 ft | 462 kts | 157° |
| 2026-04-26 16:08 | 46.63869 | 8.30810 | 37173 ft | 462 kts | 157° |
| 2026-04-26 16:09 | 46.58045 | 8.34741 | 37177 ft | 461 kts | 157° |
| 2026-04-26 16:09 | 46.52221 | 8.38651 | 37169 ft | 461 kts | 158° |
| 2026-04-26 16:10 | 46.46404 | 8.42562 | 37152 ft | 460 kts | 157° |
| 2026-04-26 16:10 | 46.40589 | 8.46463 | 37153 ft | 461 kts | 158° |
| 2026-04-26 16:11 | 46.34774 | 8.50342 | 37139 ft | 460 kts | 158° |
| 2026-04-26 16:11 | 46.28956 | 8.54202 | 37113 ft | 460 kts | 158° |
| 2026-04-26 16:12 | 46.23142 | 8.58060 | 37082 ft | 459 kts | 158° |
| 2026-04-26 16:12 | 46.14424 | 8.63862 | 37082 ft | 460 kts | 158° |
| 2026-04-26 16:13 | 46.08399 | 8.66757 | 37078 ft | 454 kts | 173° |
| 2026-04-26 16:13 | 46.02180 | 8.67779 | 37093 ft | 452 kts | 176° |
| 2026-04-26 16:14 | 45.95931 | 8.68752 | 37103 ft | 451 kts | 176° |
| 2026-04-26 16:15 | 45.86570 | 8.70207 | 37100 ft | 451 kts | 177° |
| 2026-04-26 16:15 | 45.80336 | 8.71174 | 37088 ft | 450 kts | 177° |
| 2026-04-26 16:16 | 45.70988 | 8.72604 | 37088 ft | 450 kts | 177° |
| 2026-04-26 16:16 | 45.64823 | 8.73549 | 37095 ft | 450 kts | 177° |
| 2026-04-26 16:17 | 45.58590 | 8.74499 | 37096 ft | 450 kts | 177° |
| 2026-04-26 16:17 | 45.52350 | 8.75450 | 37096 ft | 451 kts | 177° |
| 2026-04-26 16:18 | 45.42991 | 8.76890 | 37087 ft | 451 kts | 177° |
| 2026-04-26 16:19 | 45.33617 | 8.78315 | 37102 ft | 451 kts | 177° |
| 2026-04-26 16:20 | 45.24251 | 8.79723 | 37102 ft | 451 kts | 177° |
| 2026-04-26 16:20 | 45.14939 | 8.81810 | 37129 ft | 454 kts | 168° |
| 2026-04-26 16:21 | 45.08827 | 8.84088 | 37126 ft | 455 kts | 168° |
| 2026-04-26 16:21 | 45.02706 | 8.86371 | 37040 ft | 454 kts | 168° |
| 2026-04-26 16:22 | 45.00681 | 8.87125 | 36441 ft | 457 kts | 168° |
| 2026-04-26 16:22 | 44.97591 | 8.88273 | 35474 ft | 461 kts | 168° |
| 2026-04-26 16:22 | 44.94483 | 8.89429 | 34598 ft | 463 kts | 168° |
| 2026-04-26 16:22 | 44.91364 | 8.90588 | 33689 ft | 464 kts | 168° |
| 2026-04-26 16:23 | 44.88236 | 8.91747 | 32683 ft | 466 kts | 167° |
| 2026-04-26 16:23 | 44.85096 | 8.92911 | 31653 ft | 469 kts | 167° |
| 2026-04-26 16:23 | 44.81937 | 8.94080 | 30628 ft | 472 kts | 167° |
| 2026-04-26 16:23 | 44.78751 | 8.95256 | 29534 ft | 474 kts | 167° |
| 2026-04-26 16:24 | 44.75562 | 8.96440 | 28596 ft | 472 kts | 167° |
| 2026-04-26 16:24 | 44.72396 | 8.97614 | 27827 ft | 467 kts | 167° |
| 2026-04-26 16:24 | 44.69277 | 8.98769 | 27108 ft | 462 kts | 167° |
| 2026-04-26 16:24 | 44.66187 | 8.99913 | 26417 ft | 456 kts | 167° |
| 2026-04-26 16:25 | 44.63131 | 9.01043 | 25733 ft | 452 kts | 167° |
| 2026-04-26 16:25 | 44.60106 | 9.02160 | 25072 ft | 447 kts | 167° |
| 2026-04-26 16:25 | 44.57109 | 9.03265 | 24417 ft | 443 kts | 167° |
| 2026-04-26 16:25 | 44.54143 | 9.04350 | 23819 ft | 438 kts | 167° |
| 2026-04-26 16:26 | 44.51207 | 9.05415 | 23136 ft | 434 kts | 167° |
| 2026-04-26 16:26 | 44.48331 | 9.06460 | 22468 ft | 430 kts | 167° |
| 2026-04-26 16:26 | 44.45409 | 9.07525 | 21823 ft | 426 kts | 167° |
| 2026-04-26 16:26 | 44.42549 | 9.08569 | 21284 ft | 423 kts | 167° |
| 2026-04-26 16:27 | 44.39725 | 9.09597 | 21109 ft | 431 kts | 167° |
| 2026-04-26 16:27 | 44.36735 | 9.10681 | 21139 ft | 444 kts | 167° |
| 2026-04-26 16:27 | 44.33763 | 9.11759 | 21139 ft | 449 kts | 167° |
| 2026-04-26 16:27 | 44.30749 | 9.12854 | 21140 ft | 450 kts | 167° |
| 2026-04-26 16:28 | 44.27711 | 9.13959 | 21138 ft | 451 kts | 167° |
| 2026-04-26 16:28 | 44.24675 | 9.15064 | 21140 ft | 451 kts | 167° |
| 2026-04-26 16:28 | 44.21609 | 9.16180 | 21141 ft | 451 kts | 167° |
| 2026-04-26 16:28 | 44.18567 | 9.17284 | 21141 ft | 451 kts | 167° |
| 2026-04-26 16:29 | 44.15577 | 9.18367 | 21144 ft | 451 kts | 167° |
| 2026-04-26 16:29 | 44.12536 | 9.19467 | 21144 ft | 451 kts | 167° |
| 2026-04-26 16:29 | 44.09498 | 9.20562 | 21144 ft | 451 kts | 167° |
| 2026-04-26 16:29 | 44.06459 | 9.21654 | 21148 ft | 451 kts | 167° |
| 2026-04-26 16:30 | 44.03418 | 9.22745 | 21146 ft | 451 kts | 167° |
| 2026-04-26 16:30 | 44.00377 | 9.23838 | 21153 ft | 451 kts | 167° |
| 2026-04-26 16:30 | 43.97336 | 9.24933 | 21154 ft | 451 kts | 167° |
| 2026-04-26 16:30 | 43.94291 | 9.26026 | 21154 ft | 451 kts | 167° |
| 2026-04-26 16:31 | 43.91257 | 9.27113 | 21156 ft | 451 kts | 167° |
| 2026-04-26 16:31 | 43.88216 | 9.28202 | 21157 ft | 451 kts | 167° |
| 2026-04-26 16:31 | 43.85171 | 9.29291 | 21157 ft | 451 kts | 167° |
| 2026-04-26 16:31 | 43.82129 | 9.30378 | 21157 ft | 451 kts | 167° |
| 2026-04-26 16:32 | 43.79089 | 9.31464 | 21162 ft | 451 kts | 167° |
| 2026-04-26 16:32 | 43.77071 | 9.32182 | 21160 ft | 451 kts | 167° |
| 2026-04-26 16:32 | 43.73004 | 9.33628 | 21022 ft | 452 kts | 167° |
| 2026-04-26 16:32 | 43.69972 | 9.34707 | 20704 ft | 449 kts | 167° |
| 2026-04-26 16:33 | 43.66949 | 9.35782 | 20461 ft | 447 kts | 167° |
| 2026-04-26 16:33 | 43.63939 | 9.36852 | 20181 ft | 446 kts | 167° |
| 2026-04-26 16:33 | 43.60945 | 9.37916 | 19652 ft | 443 kts | 167° |
| 2026-04-26 16:33 | 43.57972 | 9.38971 | 19133 ft | 439 kts | 167° |
| 2026-04-26 16:34 | 43.55026 | 9.40016 | 18601 ft | 436 kts | 167° |
| 2026-04-26 16:34 | 43.52093 | 9.41054 | 18011 ft | 433 kts | 167° |
| 2026-04-26 16:34 | 43.49213 | 9.42069 | 17470 ft | 430 kts | 166° |
| 2026-04-26 16:34 | 43.46293 | 9.43096 | 16913 ft | 426 kts | 166° |
| 2026-04-26 16:35 | 43.43468 | 9.44090 | 16345 ft | 423 kts | 166° |
| 2026-04-26 16:35 | 43.40624 | 9.45092 | 15786 ft | 419 kts | 166° |
| 2026-04-26 16:35 | 43.37800 | 9.46085 | 15210 ft | 416 kts | 166° |
| 2026-04-26 16:35 | 43.35007 | 9.47068 | 14638 ft | 413 kts | 166° |
| 2026-04-26 16:36 | 43.32233 | 9.48043 | 14063 ft | 409 kts | 166° |
| 2026-04-26 16:36 | 43.29476 | 9.49012 | 13421 ft | 406 kts | 166° |
| 2026-04-26 16:36 | 43.26793 | 9.49956 | 12860 ft | 401 kts | 166° |
| 2026-04-26 16:36 | 43.24100 | 9.50903 | 12262 ft | 396 kts | 166° |
| 2026-04-26 16:37 | 43.21452 | 9.51832 | 11778 ft | 387 kts | 166° |
| 2026-04-26 16:37 | 43.18899 | 9.52728 | 11107 ft | 370 kts | 166° |
| 2026-04-26 16:37 | 43.16467 | 9.53579 | 10746 ft | 348 kts | 166° |
| 2026-04-26 16:37 | 43.14214 | 9.54365 | 10617 ft | 321 kts | 166° |
| 2026-04-26 16:38 | 43.12116 | 9.55096 | 10490 ft | 303 kts | 166° |
| 2026-04-26 16:38 | 43.10131 | 9.55790 | 10295 ft | 294 kts | 166° |
| 2026-04-26 16:38 | 43.08158 | 9.56476 | 10078 ft | 289 kts | 166° |
| 2026-04-26 16:38 | 43.06209 | 9.57152 | 9947 ft | 288 kts | 166° |
| 2026-04-26 16:39 | 43.04264 | 9.57829 | 9816 ft | 287 kts | 166° |
| 2026-04-26 16:39 | 43.02327 | 9.58506 | 9562 ft | 286 kts | 166° |
| 2026-04-26 16:39 | 43.00405 | 9.59177 | 9201 ft | 284 kts | 166° |
| 2026-04-26 16:39 | 42.98496 | 9.59854 | 8833 ft | 283 kts | 165° |
| 2026-04-26 16:40 | 42.96597 | 9.60535 | 8469 ft | 282 kts | 167° |
| 2026-04-26 16:40 | 42.94657 | 9.60839 | 8101 ft | 280 kts | 182° |
| 2026-04-26 16:40 | 42.92750 | 9.60407 | 7738 ft | 277 kts | 196° |
| 2026-04-26 16:40 | 42.90924 | 9.59705 | 7380 ft | 274 kts | 195° |
| 2026-04-26 16:41 | 42.89086 | 9.59027 | 7018 ft | 272 kts | 195° |
| 2026-04-26 16:41 | 42.87251 | 9.58363 | 6557 ft | 274 kts | 195° |
| 2026-04-26 16:41 | 42.85432 | 9.57709 | 6135 ft | 267 kts | 195° |
| 2026-04-26 16:41 | 42.83737 | 9.56800 | 5777 ft | 258 kts | 206° |
| 2026-04-26 16:42 | 42.82145 | 9.55725 | 5437 ft | 251 kts | 206° |
| 2026-04-26 16:42 | 42.80602 | 9.54685 | 5110 ft | 244 kts | 206° |
| 2026-04-26 16:42 | 42.79093 | 9.53669 | 4794 ft | 242 kts | 206° |
| 2026-04-26 16:42 | 42.77589 | 9.52659 | 4463 ft | 240 kts | 206° |
| 2026-04-26 16:43 | 42.76091 | 9.51655 | 4144 ft | 238 kts | 206° |
| 2026-04-26 16:43 | 42.74612 | 9.50662 | 3831 ft | 237 kts | 206° |
| 2026-04-26 16:43 | 42.73155 | 9.49685 | 3528 ft | 235 kts | 206° |
| 2026-04-26 16:43 | 42.71689 | 9.48706 | 3203 ft | 232 kts | 206° |
| 2026-04-26 16:44 | 42.70279 | 9.47763 | 2893 ft | 219 kts | 206° |
| 2026-04-26 16:44 | 42.68944 | 9.46897 | 2606 ft | 207 kts | 200° |
| 2026-04-26 16:44 | 42.67586 | 9.46564 | 2363 ft | 193 kts | 180° |
| 2026-04-26 16:44 | 42.66289 | 9.46651 | 2083 ft | 177 kts | 178° |
| 2026-04-26 16:45 | 42.65116 | 9.46736 | 1818 ft | 164 kts | 178° |
| 2026-04-26 16:45 | 42.63970 | 9.46819 | 1607 ft | 170 kts | 177° |
| 2026-04-26 16:45 | 42.62782 | 9.46906 | 1409 ft | 168 kts | 176° |
| 2026-04-26 16:45 | 42.61651 | 9.46985 | 1183 ft | 159 kts | 177° |
| 2026-04-26 16:46 | 42.60541 | 9.47039 | 952 ft | 160 kts | 178° |
| 2026-04-26 16:46 | 42.59422 | 9.47098 | 723 ft | 160 kts | 176° |
| 2026-04-26 16:46 | 42.58306 | 9.47199 | 485 ft | 161 kts | 172° |
| 2026-04-26 16:46 | 42.57205 | 9.47557 | 249 ft | 163 kts | 161° |
| 2026-04-26 16:47 | 42.56160 | 9.48000 | 33 ft | 151 kts | 162° |
| 2026-04-26 16:47 | 42.55286 | 9.48368 | 37 ft | 97 kts | 163° |
| 2026-04-26 16:47 | 42.54885 | 9.48535 | 34 ft | 43 kts | 163° |
| 2026-04-26 16:47 | 42.54606 | 9.48651 | 32 ft | 41 kts | 162° |
| 2026-04-26 16:48 | 42.54400 | 9.48738 | 34 ft | 25 kts | 163° |
| 2026-04-26 16:48 | 42.54253 | 9.48796 | 35 ft | 19 kts | 170° |
| 2026-04-26 16:48 | 42.54146 | 9.48722 | 35 ft | 18 kts | 239° |
| 2026-04-26 16:48 | 42.54142 | 9.48564 | 35 ft | 18 kts | 300° |
| 2026-04-26 16:49 | 42.54248 | 9.48480 | 35 ft | 19 kts | 342° |
| 2026-04-26 16:49 | 42.54377 | 9.48428 | 33 ft | 20 kts | 342° |
| 2026-04-26 16:49 | 42.54515 | 9.48410 | 35 ft | 20 kts | 343° |
| 2026-04-26 16:49 | 42.54654 | 9.48353 | 35 ft | 21 kts | 342° |
| 2026-04-26 16:50 | 42.54789 | 9.48295 | 34 ft | 19 kts | 342° |
| 2026-04-26 16:50 | 42.54863 | 9.48264 | 34 ft | 8 kts | 343° |
| 2026-04-26 16:50 | 42.54899 | 9.48218 | 35 ft | 8 kts | 271° |
| 2026-04-26 16:50 | 42.54884 | 9.48154 | 35 ft | 3 kts | 252° |
| 2026-04-26 16:51 | 42.54883 | 9.48147 | 35 ft | 0 kts | 252° |